createdAt,value
2022-08-26T00:00:02.531Z,57.96
2022-08-26T00:01:02.544Z,50.63
2022-08-26T00:02:02.562Z,58.23
2022-08-26T00:03:02.513Z,57.11
2022-08-26T00:04:02.524Z,56.36
2022-08-26T00:05:02.557Z,55.97
2022-08-26T00:06:02.544Z,60.80
2022-08-26T00:07:02.485Z,59.11
2022-08-26T00:08:02.481Z,55.34
2022-08-26T00:09:02.467Z,57.23
2022-08-26T00:10:03.467Z,59.35
2022-08-26T00:11:02.443Z,61.50
2022-08-26T00:12:02.462Z,57.11
2022-08-26T00:13:02.430Z,59.79
2022-08-26T00:14:02.423Z,57.35
2022-08-26T00:15:02.418Z,55.80
2022-08-26T00:16:02.416Z,58.60
2022-08-26T00:17:02.532Z,57.03
2022-08-26T00:18:02.423Z,57.71
2022-08-26T00:19:02.391Z,57.24
2022-08-26T00:20:02.384Z,55.95
2022-08-26T00:21:06.133Z,61.75
2022-08-26T00:22:02.386Z,55.87
2022-08-26T00:23:02.449Z,55.98
2022-08-26T00:24:02.352Z,55.47
2022-08-26T00:25:02.344Z,57.49
2022-08-26T00:26:02.338Z,57.10
2022-08-26T00:27:02.319Z,57.22
2022-08-26T00:28:02.318Z,60.50
2022-08-26T00:29:02.337Z,56.92
2022-08-26T00:30:02.314Z,59.74
2022-08-26T00:31:02.300Z,55.76
2022-08-26T00:32:02.376Z,61.38
2022-08-26T00:33:02.286Z,53.13
2022-08-26T00:34:02.289Z,56.47
2022-08-26T00:35:02.258Z,57.17
2022-08-26T00:36:02.261Z,59.88
2022-08-26T00:37:02.251Z,57.99
2022-08-26T00:38:02.244Z,56.74
2022-08-26T00:39:02.244Z,51.78
2022-08-26T00:40:05.232Z,51.42
2022-08-26T00:41:02.230Z,54.23
2022-08-26T00:42:02.205Z,60.15
2022-08-26T00:43:02.198Z,54.16
2022-08-26T00:44:03.258Z,61.91
2022-08-26T00:45:02.180Z,55.61
2022-08-26T00:46:03.245Z,56.46
2022-08-26T00:47:02.196Z,60.31
2022-08-26T00:48:02.174Z,55.80
2022-08-26T00:49:02.164Z,59.88
2022-08-26T00:50:02.188Z,59.22
2022-08-26T00:51:02.141Z,61.47
2022-08-26T00:52:02.122Z,54.80
2022-08-26T00:53:02.113Z,57.81
2022-08-26T00:54:02.125Z,53.71
2022-08-26T00:55:02.108Z,55.08
2022-08-26T00:56:02.087Z,56.85
2022-08-26T00:57:02.117Z,59.13
2022-08-26T00:58:02.065Z,58.41
2022-08-26T00:59:02.062Z,58.07
2022-08-26T01:00:02.057Z,60.12
2022-08-26T01:01:02.076Z,61.68
2022-08-26T01:02:02.731Z,59.18
2022-08-26T01:03:02.035Z,54.11
2022-08-26T01:04:02.021Z,55.07
2022-08-26T01:05:03.444Z,56.32
2022-08-26T01:06:02.003Z,61.01
2022-08-26T01:07:02.001Z,58.83
2022-08-26T01:08:02.020Z,52.51
2022-08-26T01:09:01.975Z,55.88
2022-08-26T01:10:02.004Z,55.28
2022-08-26T01:11:01.986Z,58.84
2022-08-26T01:12:01.965Z,52.37
2022-08-26T01:13:01.948Z,54.27
2022-08-26T01:14:01.960Z,57.49
2022-08-26T01:15:01.950Z,58.99
2022-08-26T01:16:01.987Z,56.38
2022-08-26T01:17:01.937Z,58.88
2022-08-26T01:18:01.917Z,57.89
2022-08-26T01:19:01.910Z,61.83
2022-08-26T01:20:01.900Z,54.03
2022-08-26T01:21:01.890Z,62.89
2022-08-26T01:22:01.905Z,57.57
2022-08-26T01:23:03.259Z,58.23
2022-08-26T01:24:01.870Z,58.79
2022-08-26T01:25:03.707Z,53.45
2022-08-26T01:26:01.845Z,59.50
2022-08-26T01:27:01.831Z,61.60
2022-08-26T01:28:01.860Z,61.40
2022-08-26T01:29:01.824Z,56.86
2022-08-26T01:30:01.880Z,56.39
2022-08-26T01:31:01.813Z,58.16
2022-08-26T01:32:01.819Z,55.23
2022-08-26T01:33:01.817Z,58.49
2022-08-26T01:34:01.782Z,60.51
2022-08-26T01:35:01.804Z,58.64
2022-08-26T01:36:01.767Z,58.25
2022-08-26T01:37:01.760Z,56.65
2022-08-26T01:38:01.757Z,63.20
2022-08-26T01:39:01.742Z,55.66
2022-08-26T01:40:01.802Z,58.45
2022-08-26T01:41:01.750Z,59.84
2022-08-26T01:42:03.233Z,59.25
2022-08-26T01:43:01.716Z,58.31
2022-08-26T01:44:01.713Z,57.70
2022-08-26T01:45:01.701Z,59.76
2022-08-26T01:46:01.727Z,54.68
2022-08-26T01:47:01.714Z,60.65
2022-08-26T01:48:01.687Z,59.66
2022-08-26T01:49:01.661Z,52.96
2022-08-26T01:50:01.683Z,57.19
2022-08-26T01:51:01.649Z,55.96
2022-08-26T01:52:01.661Z,61.10
2022-08-26T01:53:01.629Z,61.16
2022-08-26T01:54:01.628Z,59.78
2022-08-26T01:55:01.634Z,59.91
2022-08-26T01:56:01.615Z,59.35
2022-08-26T01:57:01.612Z,55.07
2022-08-26T01:58:01.628Z,60.87
2022-08-26T01:59:01.619Z,58.56
2022-08-26T02:00:01.586Z,55.48
2022-08-26T02:01:01.617Z,61.35
2022-08-26T02:02:01.566Z,57.84
2022-08-26T02:03:01.591Z,58.45
2022-08-26T02:04:01.564Z,61.16
2022-08-26T02:05:01.537Z,57.37
2022-08-26T02:06:01.543Z,57.59
2022-08-26T02:07:01.517Z,57.79
2022-08-26T02:08:01.512Z,55.90
2022-08-26T02:09:01.516Z,59.32
2022-08-26T02:10:01.493Z,56.94
2022-08-26T02:11:01.485Z,60.24
2022-08-26T02:12:01.483Z,55.81
2022-08-26T02:13:01.513Z,58.77
2022-08-26T02:14:01.466Z,57.18
2022-08-26T02:15:01.475Z,57.38
2022-08-26T02:16:01.487Z,61.58
2022-08-26T02:17:01.441Z,59.77
2022-08-26T02:18:01.439Z,60.53
2022-08-26T02:19:01.606Z,57.00
2022-08-26T02:20:01.434Z,57.73
2022-08-26T02:21:01.440Z,56.86
2022-08-26T02:22:01.385Z,55.00
2022-08-26T02:23:01.452Z,56.79
2022-08-26T02:24:01.372Z,59.85
2022-08-26T02:25:01.394Z,59.53
2022-08-26T02:26:01.363Z,59.70
2022-08-26T02:27:01.370Z,57.88
2022-08-26T02:28:01.364Z,57.60
2022-08-26T02:29:01.349Z,61.49
2022-08-26T02:30:01.351Z,51.14
2022-08-26T02:31:02.663Z,55.79
2022-08-26T02:32:01.310Z,55.47
2022-08-26T02:33:01.372Z,58.61
2022-08-26T02:34:01.309Z,57.58
2022-08-26T02:35:01.279Z,62.60
2022-08-26T02:36:01.277Z,60.97
2022-08-26T02:37:01.294Z,55.97
2022-08-26T02:38:01.262Z,58.06
2022-08-26T02:39:01.426Z,60.40
2022-08-26T02:40:01.270Z,57.93
2022-08-26T02:41:01.232Z,58.91
2022-08-26T02:42:01.226Z,59.48
2022-08-26T02:43:01.216Z,62.60
2022-08-26T02:44:01.201Z,59.02
2022-08-26T02:45:01.241Z,57.88
2022-08-26T02:46:02.417Z,59.02
2022-08-26T02:47:01.238Z,57.68
2022-08-26T02:48:01.178Z,62.06
2022-08-26T02:49:01.174Z,62.69
2022-08-26T02:50:01.161Z,60.59
2022-08-26T02:51:01.183Z,58.80
2022-08-26T02:52:01.849Z,58.37
2022-08-26T02:53:01.193Z,63.04
2022-08-26T02:54:01.131Z,61.10
2022-08-26T02:55:01.133Z,60.59
2022-08-26T02:56:01.112Z,61.18
2022-08-26T02:57:01.130Z,61.92
2022-08-26T02:58:01.104Z,60.86
2022-08-26T02:59:01.084Z,59.29
2022-08-26T03:00:01.147Z,61.57
2022-08-26T03:01:01.581Z,60.09
2022-08-26T03:02:01.086Z,60.38
2022-08-26T03:03:01.133Z,61.14
2022-08-26T03:04:01.051Z,60.33
2022-08-26T03:05:01.898Z,58.76
2022-08-26T03:06:01.037Z,63.44
2022-08-26T03:07:01.036Z,62.87
2022-08-26T03:08:01.017Z,61.27
2022-08-26T03:09:01.063Z,64.02
2022-08-26T03:10:01.005Z,57.23
2022-08-26T03:11:01.546Z,58.80
2022-08-26T03:12:00.995Z,61.50
2022-08-26T03:13:00.983Z,60.75
2022-08-26T03:14:01.740Z,61.89
2022-08-26T03:15:00.992Z,58.99
2022-08-26T03:16:01.004Z,60.77
2022-08-26T03:17:00.950Z,57.30
2022-08-26T03:18:00.938Z,62.08
2022-08-26T03:19:00.940Z,62.62
2022-08-26T03:20:00.982Z,60.76
2022-08-26T03:21:00.952Z,60.28
2022-08-26T03:22:00.918Z,58.62
2022-08-26T03:23:00.906Z,56.75
2022-08-26T03:24:00.896Z,61.47
2022-08-26T03:25:00.913Z,59.69
2022-08-26T03:26:00.898Z,56.91
2022-08-26T03:27:00.928Z,61.50
2022-08-26T03:28:01.869Z,58.17
2022-08-26T03:29:00.851Z,59.04
2022-08-26T03:30:00.850Z,59.50
2022-08-26T03:31:00.895Z,57.47
2022-08-26T03:32:00.859Z,61.12
2022-08-26T03:33:00.838Z,61.73
2022-08-26T03:34:00.822Z,63.68
2022-08-26T03:35:00.808Z,60.58
2022-08-26T03:36:00.884Z,60.05
2022-08-26T03:37:00.792Z,61.97
2022-08-26T03:38:00.814Z,60.55
2022-08-26T03:39:00.799Z,62.58
2022-08-26T03:40:00.847Z,62.21
2022-08-26T03:41:00.771Z,62.71
2022-08-26T03:42:00.759Z,60.59
2022-08-26T03:43:00.859Z,63.12
2022-08-26T03:44:01.835Z,59.26
2022-08-26T03:45:00.751Z,63.33
2022-08-26T03:46:00.734Z,59.77
2022-08-26T03:47:00.710Z,61.76
2022-08-26T03:48:00.711Z,59.69
2022-08-26T03:49:00.694Z,60.77
2022-08-26T03:50:00.719Z,60.16
2022-08-26T03:51:00.671Z,56.39
2022-08-26T03:52:00.680Z,58.91
2022-08-26T03:53:00.661Z,60.73
2022-08-26T03:54:00.664Z,60.07
2022-08-26T03:55:00.654Z,62.90
2022-08-26T03:56:00.667Z,63.53
2022-08-26T03:57:00.640Z,64.70
2022-08-26T03:58:00.630Z,60.43
2022-08-26T03:59:00.616Z,64.31
2022-08-26T04:00:00.610Z,60.31
2022-08-26T04:01:00.596Z,63.42
2022-08-26T04:02:00.653Z,61.31
2022-08-26T04:03:00.617Z,60.34
2022-08-26T04:04:00.937Z,64.16
2022-08-26T04:05:00.591Z,64.45
2022-08-26T04:06:00.560Z,60.34
2022-08-26T04:07:00.552Z,61.13
2022-08-26T04:08:00.575Z,60.14
2022-08-26T04:09:00.552Z,62.96
2022-08-26T04:10:00.534Z,64.10
2022-08-26T04:11:00.573Z,59.79
2022-08-26T04:12:00.546Z,62.48
2022-08-26T04:13:00.507Z,63.09
2022-08-26T04:14:00.504Z,59.94
2022-08-26T04:15:00.490Z,64.41
2022-08-26T04:16:00.650Z,61.93
2022-08-26T04:17:00.467Z,62.04
2022-08-26T04:18:00.487Z,61.17
2022-08-26T04:19:00.446Z,62.53
2022-08-26T04:20:00.493Z,61.84
2022-08-26T04:21:00.476Z,60.58
2022-08-26T04:22:00.433Z,64.40
2022-08-26T04:23:00.428Z,62.65
2022-08-26T04:24:00.462Z,63.20
2022-08-26T04:25:00.423Z,64.02
2022-08-26T04:26:00.421Z,59.01
2022-08-26T04:27:00.407Z,56.08
2022-08-26T04:28:00.393Z,60.29
2022-08-26T04:29:00.385Z,60.90
2022-08-26T04:30:00.467Z,57.26
2022-08-26T04:31:00.424Z,61.01
2022-08-26T04:32:00.357Z,56.15
2022-08-26T04:33:00.352Z,58.70
2022-08-26T04:34:00.350Z,59.00
2022-08-26T04:35:00.723Z,60.82
2022-08-26T04:36:00.342Z,64.51
2022-08-26T04:37:00.313Z,61.39
2022-08-26T04:38:00.311Z,60.15
2022-08-26T04:39:00.324Z,63.30
2022-08-26T04:40:00.409Z,65.53
2022-08-26T04:41:00.307Z,61.08
2022-08-26T04:42:00.281Z,63.45
2022-08-26T04:43:00.307Z,64.42
2022-08-26T04:44:00.264Z,63.24
2022-08-26T04:45:00.250Z,63.71
2022-08-26T04:46:00.322Z,62.16
2022-08-26T04:47:00.262Z,59.22
2022-08-26T04:48:00.233Z,61.93
2022-08-26T04:49:00.225Z,62.25
2022-08-26T04:50:00.214Z,61.35
2022-08-26T04:51:00.405Z,64.32
2022-08-26T04:52:00.210Z,64.38
2022-08-26T04:53:00.214Z,65.30
2022-08-26T04:54:00.186Z,61.43
2022-08-26T04:55:00.188Z,63.82
2022-08-26T04:56:00.157Z,63.92
2022-08-26T04:57:00.155Z,65.68
2022-08-26T04:58:00.154Z,63.77
2022-08-26T04:59:00.166Z,61.86
2022-08-26T05:00:00.161Z,62.84
2022-08-26T05:01:00.144Z,64.60
2022-08-26T05:02:00.176Z,64.83
2022-08-26T05:03:00.109Z,63.48
2022-08-26T05:04:00.172Z,60.79
2022-08-26T05:05:00.111Z,63.82
2022-08-26T05:06:00.097Z,62.52
2022-08-26T05:07:02.798Z,62.32
2022-08-26T05:08:00.077Z,64.89
2022-08-26T05:09:00.092Z,62.19
2022-08-26T05:10:00.065Z,62.38
2022-08-26T05:11:00.050Z,62.50
2022-08-26T05:12:00.052Z,63.04
2022-08-26T05:13:00.029Z,62.72
2022-08-26T05:14:02.359Z,63.35
2022-08-26T05:15:00.033Z,63.41
2022-08-26T05:16:01.415Z,62.63
2022-08-26T05:17:00.007Z,60.79
2022-08-26T05:18:00.105Z,60.47
2022-08-26T05:18:59.990Z,65.16
2022-08-26T05:19:59.978Z,63.05
2022-08-26T05:20:59.999Z,64.58
2022-08-26T05:21:59.968Z,64.29
2022-08-26T05:22:59.952Z,59.98
2022-08-26T05:23:59.994Z,62.17
2022-08-26T05:24:59.938Z,63.70
2022-08-26T05:26:00.554Z,62.51
2022-08-26T05:26:59.993Z,63.26
2022-08-26T05:27:59.900Z,61.61
2022-08-26T05:28:59.917Z,60.49
2022-08-26T05:29:59.891Z,62.25
2022-08-26T05:30:59.951Z,63.17
2022-08-26T05:31:59.900Z,61.55
2022-08-26T05:32:59.879Z,59.59
2022-08-26T05:33:59.860Z,63.59
2022-08-26T05:34:59.866Z,61.34
2022-08-26T05:35:59.858Z,62.79
2022-08-26T05:36:59.845Z,62.52
2022-08-26T05:37:59.853Z,63.71
2022-08-26T05:38:59.823Z,61.90
2022-08-26T05:39:59.898Z,60.30
2022-08-26T05:40:59.815Z,60.67
2022-08-26T05:41:59.808Z,60.80
2022-08-26T05:42:59.836Z,63.58
2022-08-26T05:43:59.945Z,59.78
2022-08-26T05:44:59.788Z,62.79
2022-08-26T05:45:59.824Z,60.95
2022-08-26T05:46:59.771Z,63.69
2022-08-26T05:47:59.791Z,61.20
2022-08-26T05:48:59.846Z,62.75
2022-08-26T05:49:59.743Z,64.45
2022-08-26T05:50:59.734Z,60.50
2022-08-26T05:51:59.717Z,61.58
2022-08-26T05:52:59.709Z,62.13
2022-08-26T05:53:59.724Z,60.54
2022-08-26T05:54:59.713Z,61.99
2022-08-26T05:55:59.684Z,58.01
2022-08-26T05:56:59.680Z,58.66
2022-08-26T05:57:59.670Z,60.30
2022-08-26T05:58:59.877Z,60.45
2022-08-26T05:59:59.656Z,61.67
2022-08-26T06:00:59.701Z,61.02
2022-08-26T06:01:59.712Z,59.55
2022-08-26T06:02:59.744Z,58.78
2022-08-26T06:04:01.299Z,60.93
2022-08-26T06:04:59.630Z,58.22
2022-08-26T06:05:59.602Z,60.82
2022-08-26T06:06:59.617Z,61.95
2022-08-26T06:07:59.584Z,62.56
2022-08-26T06:08:59.618Z,61.47
2022-08-26T06:10:28.272Z,59.93
2022-08-26T06:11:00.561Z,62.08
2022-08-26T06:11:59.582Z,63.90
2022-08-26T06:13:06.033Z,61.25
2022-08-26T06:14:03.796Z,62.09
2022-08-26T06:14:59.535Z,60.31
2022-08-26T06:15:59.609Z,59.56
2022-08-26T06:16:59.542Z,63.66
2022-08-26T06:17:59.510Z,63.94
2022-08-26T06:18:59.501Z,62.23
2022-08-26T06:19:59.560Z,61.29
2022-08-26T06:20:59.491Z,62.83
2022-08-26T06:21:59.475Z,63.71
2022-08-26T06:22:59.486Z,64.18
2022-08-26T06:23:59.475Z,60.00
2022-08-26T06:24:59.460Z,60.77
2022-08-26T06:25:59.441Z,60.69
2022-08-26T06:26:59.491Z,62.56
2022-08-26T06:27:59.418Z,61.66
2022-08-26T06:28:59.417Z,61.30
2022-08-26T06:29:59.438Z,63.87
2022-08-26T06:30:59.481Z,64.71
2022-08-26T06:31:59.420Z,60.48
2022-08-26T06:32:59.453Z,60.59
2022-08-26T06:33:59.416Z,63.05
2022-08-26T06:34:59.409Z,60.24
2022-08-26T06:35:59.367Z,61.51
2022-08-26T06:36:59.369Z,59.76
2022-08-26T06:37:59.372Z,62.83
2022-08-26T06:38:59.379Z,65.01
2022-08-26T06:39:59.403Z,63.51
2022-08-26T06:40:59.850Z,60.71
2022-08-26T06:41:59.356Z,61.35
2022-08-26T06:42:59.307Z,61.19
2022-08-26T06:43:59.300Z,63.04
2022-08-26T06:44:59.301Z,60.70
2022-08-26T06:45:59.341Z,62.99
2022-08-26T06:46:59.318Z,63.07
2022-08-26T06:47:59.274Z,62.24
2022-08-26T06:48:59.270Z,60.99
2022-08-26T06:49:59.254Z,63.29
2022-08-26T06:50:59.272Z,63.47
2022-08-26T06:51:59.237Z,63.01
2022-08-26T06:52:59.251Z,60.48
2022-08-26T06:53:59.281Z,63.75
2022-08-26T06:54:59.237Z,62.41
2022-08-26T06:55:59.214Z,61.66
2022-08-26T06:56:59.302Z,58.56
2022-08-26T06:57:59.217Z,60.37
2022-08-26T06:58:59.195Z,59.71
2022-08-26T06:59:59.184Z,60.08
2022-08-26T07:01:03.061Z,62.49
2022-08-26T07:02:00.222Z,61.60
2022-08-26T07:02:59.224Z,61.66
2022-08-26T07:03:59.152Z,59.52
2022-08-26T07:04:59.144Z,59.37
2022-08-26T07:05:59.139Z,61.99
2022-08-26T07:06:59.180Z,60.85
2022-08-26T07:07:59.123Z,59.34
2022-08-26T07:08:59.109Z,62.24
2022-08-26T07:09:59.106Z,63.03
2022-08-26T07:10:59.103Z,61.92
2022-08-26T07:11:59.111Z,59.90
2022-08-26T07:12:59.088Z,63.18
2022-08-26T07:13:59.073Z,61.89
2022-08-26T07:14:59.072Z,59.09
2022-08-26T07:16:02.972Z,60.93
2022-08-26T07:16:59.239Z,60.50
2022-08-26T07:17:59.035Z,60.16
2022-08-26T07:18:59.116Z,61.41
2022-08-26T07:19:59.029Z,61.66
2022-08-26T07:20:59.006Z,61.92
2022-08-26T07:22:00.162Z,61.55
2022-08-26T07:22:59.022Z,58.50
2022-08-26T07:24:01.301Z,61.02
2022-08-26T07:24:59.303Z,60.46
2022-08-26T07:25:58.975Z,59.16
2022-08-26T07:26:58.964Z,61.46
2022-08-26T07:27:59.021Z,61.06
2022-08-26T07:28:59.444Z,62.11
2022-08-26T07:29:59.157Z,60.46
2022-08-26T07:30:59.185Z,58.63
2022-08-26T07:32:00.038Z,61.59
2022-08-26T07:32:58.934Z,61.76
2022-08-26T07:33:58.920Z,62.26
2022-08-26T07:34:58.913Z,62.57
2022-08-26T07:35:58.886Z,63.18
2022-08-26T07:36:58.952Z,61.74
2022-08-26T07:38:00.826Z,60.13
2022-08-26T07:38:58.933Z,60.33
2022-08-26T07:39:59.733Z,61.44
2022-08-26T07:40:58.842Z,59.56
2022-08-26T07:41:58.832Z,62.32
2022-08-26T07:42:58.834Z,60.98
2022-08-26T07:43:58.812Z,61.87
2022-08-26T07:44:58.817Z,59.23
2022-08-26T07:45:58.824Z,61.04
2022-08-26T07:46:58.799Z,62.72
2022-08-26T07:47:58.794Z,62.06
2022-08-26T07:48:58.803Z,62.88
2022-08-26T07:49:58.769Z,62.07
2022-08-26T07:50:58.804Z,61.19
2022-08-26T07:51:58.763Z,60.58
2022-08-26T07:52:58.742Z,61.88
2022-08-26T07:53:58.730Z,61.63
2022-08-26T07:54:58.784Z,59.00
2022-08-26T07:55:58.733Z,60.89
2022-08-26T07:56:58.715Z,61.68
2022-08-26T07:57:58.713Z,63.09
2022-08-26T07:58:58.694Z,60.96
2022-08-26T07:59:58.685Z,61.66
2022-08-26T08:00:58.736Z,59.93
2022-08-26T08:01:59.056Z,60.39
2022-08-26T08:02:58.664Z,60.76
2022-08-26T08:03:58.647Z,61.41
2022-08-26T08:04:58.770Z,61.42
2022-08-26T08:05:58.667Z,59.19
2022-08-26T08:06:58.655Z,62.99
2022-08-26T08:08:26.737Z,62.15
2022-08-26T08:08:59.607Z,61.55
2022-08-26T08:09:58.616Z,60.62
2022-08-26T08:10:58.598Z,58.72
2022-08-26T08:11:58.654Z,60.62
2022-08-26T08:12:58.597Z,60.47
2022-08-26T08:13:58.573Z,60.18
2022-08-26T08:14:58.568Z,60.74
2022-08-26T08:15:58.554Z,62.35
2022-08-26T08:16:58.673Z,61.96
2022-08-26T08:18:00.699Z,63.05
2022-08-26T08:18:58.566Z,60.53
2022-08-26T08:19:58.531Z,61.14
2022-08-26T08:21:10.907Z,60.32
2022-08-26T08:21:59.559Z,60.21
2022-08-26T08:22:58.511Z,61.75
2022-08-26T08:23:58.545Z,59.50
2022-08-26T08:24:58.477Z,62.66
2022-08-26T08:25:58.556Z,63.94
2022-08-26T08:26:58.601Z,60.18
2022-08-26T08:27:58.499Z,60.14
2022-08-26T08:28:58.448Z,62.69
2022-08-26T08:29:58.448Z,62.45
2022-08-26T08:30:58.486Z,62.72
2022-08-26T08:31:58.802Z,61.48
2022-08-26T08:32:58.432Z,60.85
2022-08-26T08:33:58.417Z,62.37
2022-08-26T08:34:58.403Z,60.75
2022-08-26T08:35:58.412Z,60.19
2022-08-26T08:36:58.410Z,61.69
2022-08-26T08:37:58.384Z,61.96
2022-08-26T08:38:58.387Z,62.04
2022-08-26T08:39:58.429Z,61.98
2022-08-26T08:40:58.350Z,61.95
2022-08-26T08:41:58.630Z,57.10
2022-08-26T08:42:58.338Z,55.96
2022-08-26T08:43:58.325Z,58.49
2022-08-26T08:44:58.986Z,60.72
2022-08-26T08:45:58.309Z,59.34
2022-08-26T08:46:58.302Z,58.72
2022-08-26T08:47:58.509Z,57.57
2022-08-26T08:48:59.010Z,55.63
2022-08-26T08:49:58.283Z,59.32
2022-08-26T08:50:58.276Z,58.85
2022-08-26T08:51:58.266Z,58.79
2022-08-26T08:52:58.371Z,55.33
2022-08-26T08:53:58.969Z,58.13
2022-08-26T08:54:58.234Z,57.33
2022-08-26T08:55:58.239Z,57.95
2022-08-26T08:56:59.844Z,57.40
2022-08-26T08:58:02.275Z,60.37
2022-08-26T08:58:58.220Z,56.65
2022-08-26T08:59:58.214Z,58.43
2022-08-26T09:00:58.281Z,57.00
2022-08-26T09:01:58.254Z,59.28
2022-08-26T09:02:58.190Z,57.54
2022-08-26T09:03:58.173Z,59.20
2022-08-26T09:04:58.162Z,56.70
2022-08-26T09:05:58.153Z,58.58
2022-08-26T09:07:58.205Z,58.64
2022-08-26T09:08:58.133Z,56.16
2022-08-26T09:09:58.133Z,58.21
2022-08-26T09:10:58.111Z,59.73
2022-08-26T09:11:58.120Z,59.79
2022-08-26T09:12:58.109Z,57.61
2022-08-26T09:13:58.116Z,59.46
2022-08-26T09:14:58.096Z,56.76
2022-08-26T09:15:58.076Z,57.24
2022-08-26T09:16:58.127Z,58.43
2022-08-26T09:17:58.068Z,57.21
2022-08-26T09:18:58.083Z,59.77
2022-08-26T09:19:58.039Z,56.69
2022-08-26T09:20:58.034Z,55.62
2022-08-26T09:21:58.039Z,57.68
2022-08-26T09:22:58.017Z,56.31
2022-08-26T09:24:05.596Z,56.58
2022-08-26T09:24:58.033Z,57.08
2022-08-26T09:25:57.991Z,57.87
2022-08-26T09:26:57.996Z,58.31
2022-08-26T09:27:57.988Z,56.13
2022-08-26T09:28:57.970Z,54.56
2022-08-26T09:29:57.987Z,57.52
2022-08-26T09:30:58.465Z,58.82
2022-08-26T09:31:57.940Z,58.83
2022-08-26T09:32:57.936Z,58.97
2022-08-26T09:33:57.921Z,59.29
2022-08-26T09:34:57.922Z,55.87
2022-08-26T09:35:57.918Z,57.07
2022-08-26T09:36:57.950Z,58.90
2022-08-26T09:37:57.912Z,59.64
2022-08-26T09:38:57.892Z,59.77
2022-08-26T09:39:57.933Z,58.15
2022-08-26T09:40:59.346Z,58.76
2022-08-26T09:41:57.880Z,58.45
2022-08-26T09:42:57.878Z,59.84
2022-08-26T09:43:57.857Z,59.45
2022-08-26T09:44:57.882Z,57.85
2022-08-26T09:45:59.709Z,59.19
2022-08-26T09:46:57.840Z,56.44
2022-08-26T09:47:57.847Z,60.12
2022-08-26T09:48:58.523Z,59.31
2022-08-26T09:49:57.811Z,59.62
2022-08-26T09:50:57.808Z,58.09
2022-08-26T09:51:57.795Z,59.21
2022-08-26T09:52:57.919Z,58.29
2022-08-26T09:53:57.813Z,58.34
2022-08-26T09:54:57.766Z,59.31
2022-08-26T09:55:57.766Z,57.78
2022-08-26T09:56:57.763Z,56.86
2022-08-26T09:58:02.255Z,57.46
2022-08-26T09:58:58.775Z,58.57
2022-08-26T09:59:57.727Z,57.48
2022-08-26T10:00:57.766Z,58.37
2022-08-26T10:01:57.791Z,56.53
2022-08-26T10:02:58.159Z,57.51
2022-08-26T10:03:57.797Z,54.35
2022-08-26T10:04:57.694Z,58.01
2022-08-26T10:05:58.701Z,54.86
2022-08-26T10:06:57.735Z,55.82
2022-08-26T10:07:57.723Z,54.38
2022-08-26T10:08:57.687Z,56.31
2022-08-26T10:09:57.668Z,56.91
2022-08-26T10:10:57.646Z,55.56
2022-08-26T10:11:57.667Z,57.10
2022-08-26T10:12:57.648Z,57.24
2022-08-26T10:13:57.624Z,57.57
2022-08-26T10:14:57.618Z,56.33
2022-08-26T10:15:57.622Z,58.07
2022-08-26T10:16:57.692Z,57.50
2022-08-26T10:17:57.612Z,56.43
2022-08-26T10:19:00.149Z,56.33
2022-08-26T10:19:57.853Z,58.75
2022-08-26T10:20:57.575Z,56.23
2022-08-26T10:21:57.574Z,58.10
2022-08-26T10:22:57.559Z,58.94
2022-08-26T10:23:57.582Z,57.46
2022-08-26T10:24:57.543Z,57.63
2022-08-26T10:25:59.164Z,55.66
2022-08-26T10:26:57.547Z,54.23
2022-08-26T10:27:57.569Z,59.65
2022-08-26T10:28:57.516Z,57.86
2022-08-26T10:29:57.525Z,54.76
2022-08-26T10:30:57.549Z,58.23
2022-08-26T10:32:02.525Z,58.45
2022-08-26T10:32:58.485Z,57.48
2022-08-26T10:34:00.368Z,58.01
2022-08-26T10:34:57.491Z,57.84
2022-08-26T10:35:57.475Z,57.19
2022-08-26T10:37:13.874Z,56.23
2022-08-26T10:37:58.461Z,58.58
2022-08-26T10:38:57.442Z,56.80
2022-08-26T10:39:59.176Z,56.33
2022-08-26T10:40:57.472Z,56.87
2022-08-26T10:41:57.426Z,57.34
2022-08-26T10:42:57.420Z,57.23
2022-08-26T10:43:57.414Z,59.05
2022-08-26T10:44:58.498Z,56.73
2022-08-26T10:45:57.477Z,55.46
2022-08-26T10:46:57.381Z,56.82
2022-08-26T10:47:57.385Z,58.46
2022-08-26T10:48:57.385Z,58.69
2022-08-26T10:50:02.861Z,59.40
2022-08-26T10:50:58.381Z,57.97
2022-08-26T10:51:57.356Z,56.93
2022-08-26T10:52:57.333Z,56.62
2022-08-26T10:53:57.400Z,58.51
2022-08-26T10:54:57.321Z,58.78
2022-08-26T10:55:57.342Z,58.77
2022-08-26T10:56:57.302Z,58.91
2022-08-26T10:57:57.367Z,58.70
2022-08-26T10:58:57.304Z,58.56
2022-08-26T10:59:57.280Z,58.89
2022-08-26T11:00:57.356Z,57.53
2022-08-26T11:01:57.304Z,57.59
2022-08-26T11:02:57.250Z,57.74
2022-08-26T11:03:58.120Z,59.86
2022-08-26T11:04:57.252Z,56.93
2022-08-26T11:05:57.241Z,57.40
2022-08-26T11:06:57.230Z,55.36
2022-08-26T11:07:57.242Z,59.84
2022-08-26T11:08:57.219Z,58.66
2022-08-26T11:09:57.206Z,58.41
2022-08-26T11:10:58.948Z,56.45
2022-08-26T11:11:57.202Z,57.50
2022-08-26T11:12:57.204Z,58.84
2022-08-26T11:13:57.189Z,59.06
2022-08-26T11:14:59.038Z,56.61
2022-08-26T11:15:57.187Z,56.85
2022-08-26T11:16:57.180Z,57.09
2022-08-26T11:17:57.157Z,56.75
2022-08-26T11:18:57.139Z,56.67
2022-08-26T11:20:01.989Z,57.38
2022-08-26T11:20:58.130Z,58.45
2022-08-26T11:21:57.120Z,57.26
2022-08-26T11:22:59.543Z,57.98
2022-08-26T11:23:57.126Z,58.77
2022-08-26T11:24:57.079Z,58.46
2022-08-26T11:25:57.493Z,57.77
2022-08-26T11:26:57.068Z,55.74
2022-08-26T11:27:57.069Z,58.67
2022-08-26T11:28:57.077Z,57.12
2022-08-26T11:29:57.069Z,57.97
2022-08-26T11:30:58.328Z,57.15
2022-08-26T11:31:57.241Z,57.02
2022-08-26T11:32:57.034Z,58.46
2022-08-26T11:33:57.027Z,54.92
2022-08-26T11:34:57.016Z,58.31
2022-08-26T11:35:57.029Z,56.96
2022-08-26T11:36:56.992Z,56.18
2022-08-26T11:37:57.000Z,56.86
2022-08-26T11:38:57.001Z,56.29
2022-08-26T11:39:57.481Z,56.25
2022-08-26T11:40:57.012Z,56.19
2022-08-26T11:41:57.772Z,56.48
2022-08-26T11:42:56.979Z,56.89
2022-08-26T11:43:56.952Z,57.72
2022-08-26T11:44:58.036Z,56.91
2022-08-26T11:45:57.000Z,56.11
2022-08-26T11:46:56.909Z,58.93
2022-08-26T11:47:56.924Z,57.95
2022-08-26T11:48:56.908Z,58.25
2022-08-26T11:49:56.911Z,55.47
2022-08-26T11:50:56.921Z,56.93
2022-08-26T11:51:56.889Z,56.50
2022-08-26T11:52:56.877Z,56.77
2022-08-26T11:53:56.879Z,56.80
2022-08-26T11:54:56.865Z,56.06
2022-08-26T11:55:56.849Z,54.30
2022-08-26T11:56:56.880Z,58.42
2022-08-26T11:57:56.840Z,56.49
2022-08-26T11:58:56.855Z,56.77
2022-08-26T11:59:56.830Z,57.03
2022-08-26T12:00:56.815Z,57.12
2022-08-26T12:01:56.813Z,55.84
2022-08-26T12:02:56.832Z,54.92
2022-08-26T12:03:58.466Z,56.59
2022-08-26T12:04:56.801Z,56.21
2022-08-26T12:05:56.775Z,57.65
2022-08-26T12:06:56.787Z,55.60
2022-08-26T12:07:56.807Z,55.03
2022-08-26T12:08:56.840Z,56.83
2022-08-26T12:09:56.743Z,57.61
2022-08-26T12:10:56.748Z,57.79
2022-08-26T12:11:58.162Z,56.04
2022-08-26T12:12:56.757Z,54.57
2022-08-26T12:13:56.739Z,56.38
2022-08-26T12:14:56.841Z,57.03
2022-08-26T12:15:56.706Z,58.32
2022-08-26T12:16:56.761Z,57.06
2022-08-26T12:17:57.593Z,58.06
2022-08-26T12:18:56.686Z,54.58
2022-08-26T12:19:56.686Z,54.01
2022-08-26T12:20:57.112Z,56.70
2022-08-26T12:21:56.653Z,59.07
2022-08-26T12:22:56.714Z,55.02
2022-08-26T12:23:56.724Z,57.45
2022-08-26T12:24:56.648Z,55.69
2022-08-26T12:25:56.653Z,54.59
2022-08-26T12:26:56.617Z,55.29
2022-08-26T12:27:56.607Z,55.16
2022-08-26T12:28:57.507Z,55.46
2022-08-26T12:29:56.607Z,54.76
2022-08-26T12:30:56.603Z,55.42
2022-08-26T12:31:56.653Z,53.97
2022-08-26T12:32:57.616Z,55.51
2022-08-26T12:33:56.553Z,57.76
2022-08-26T12:34:56.618Z,58.67
2022-08-26T12:35:57.108Z,56.42
2022-08-26T12:36:56.591Z,53.55
2022-08-26T12:37:56.551Z,52.92
2022-08-26T12:38:58.293Z,52.97
2022-08-26T12:39:56.610Z,57.56
2022-08-26T12:40:56.558Z,53.96
2022-08-26T12:41:56.571Z,53.67
2022-08-26T12:42:56.507Z,54.86
2022-08-26T12:43:56.627Z,53.65
2022-08-26T12:44:56.506Z,56.68
2022-08-26T12:45:56.546Z,55.68
2022-08-26T12:46:56.464Z,54.96
2022-08-26T12:47:56.551Z,55.12
2022-08-26T12:48:56.458Z,54.65
2022-08-26T12:49:56.436Z,53.82
2022-08-26T12:50:56.448Z,56.64
2022-08-26T12:51:56.458Z,55.77
2022-08-26T12:52:56.830Z,55.00